Terminal Aerodrome Forecast
Issued by NWS Sioux Falls, SD

Home | Current Version | Previous Version | Text Only | Print | Product List | Glossary Off
Versions: 1 2 3 4 5 6 7 8 9 10 11 12 13 14

514
FTUS43 KFSD 201901 AAA
TAFHON
TAF AMD
KHON 201901Z 2019/2118 03013KT P6SM SHRA OVC010
     FM210100 36011KT P6SM SHRA OVC008
     FM210700 33012KT P6SM OVC008
     FM211400 32014G21KT P6SM BKN015
     FM211600 32016G24KT P6SM BKN035=

USA.gov is the U.S. government's official web portal to all federal, state and local government web resources and services.